map of GTE home
GTE - Airport
Location
City:  Groote Eylandt, Northern Territory, Australia
ICAO:YGTE
IATA:GTE

Details
Type:Airport (Aerodrome, Airfield)
Latitude:13°58'30"S (-13.974999)
Longitude:136°27'36"E (136.460000)
Datum:WGS 1984
Elevation:53 ft (16 m)
Variation:3.94°E (WMM2015 magnetic declination)
-0.07° annual change
Runways:1
Longest:6237 × 98 ft (1901 × 30 m), paved

Time
Time Zone:UTC+9:30
Local Time:

Weather
METAR:YGTE 161700Z AUTO 33007KT 9999 // SCT019 29/26 Q1004

Related Locations
Nearby:
Farthest:CAY: 11569 mi / 18618 km
Cayenne [Félix Eboué Airport (Rochambeau Airport)], GF

Find:

   beyond  
but within

Other Information
Maps:
NOTAMs:
Links:
Sources:

  
  • flag of Australia
  • flag of Northern Territory
  

Sectional Chart

Flight Planning
at skyvector.com

Satellite Image

Google Maps Satellite view

 

Copyright © 2004-2018 Karl L. Swartz. All rights reserved.
The Great Circle Mapper name and logo are trademarks of the Great Circle Mapper.
All other trademarks mentioned herein belong to their respective owners.
Please see credits for attibutions and further copyright information.

  Follow gcmap on Facebook Follow gcmap on Twitter Follow gcmap on Google+ GCmap on LinkedIn

hCard Microformat

Geo Microformat